Time;durP1;ratioP1;P1;durP2;ratioP2;P2;SDS_P1;SDS_P2;PMS_P1;PMS_P2;Temp;Humidity;BMP_temperature;BMP_pressure;BME280_temperature;BME280_humidity;BME280_pressure;Samples;Min_cycle;Max_cycle;Signal;HPM_P1;HPM_P2
2023/03/27 04:20:05;;;;;;;1.40;1.30;;;;;;;;;;4915329;29;20244;-66
2023/03/27 04:22:37;;;;;;;1.50;1.50;;;9.10;99.90;;;;;;4916790;29;20592;-67
2023/03/27 04:25:04;;;;;;;1.52;1.52;;;3.10;99.90;;;;;;4916787;29;20597;-66
2023/03/27 04:27:31;;;;;;;1.63;1.50;;;2.90;99.90;;;;;;4917021;29;20229;-66
2023/03/27 04:29:58;;;;;;;1.67;1.58;;;2.90;99.90;;;;;;4917437;29;20201;-66
2023/03/27 04:32:28;;;;;;;1.92;1.83;;;2.80;99.90;;;;;;4917648;29;20209;-66
2023/03/27 04:34:55;;;;;;;2.75;2.55;;;2.80;99.90;;;;;;4917172;29;20209;-65
2023/03/27 04:37:23;;;;;;;2.75;2.25;;;2.70;99.90;;;;;;4916855;29;20276;-66
2023/03/27 04:39:49;;;;;;;3.05;2.50;;;2.70;99.90;;;;;;4916894;29;20630;-65
2023/03/27 04:42:16;;;;;;;3.35;2.47;;;2.70;99.90;;;;;;4916874;29;20216;-65
2023/03/27 04:44:45;;;;;;;3.15;2.97;;;2.70;99.90;;;;;;4916463;29;20665;-65
2023/03/27 04:47:11;;;;;;;6.28;3.30;;;2.70;99.90;;;;;;4920108;29;20301;-65
2023/03/27 04:49:42;;;;;;;3.70;3.28;;;2.60;99.90;;;;;;4920265;29;20205;-65
2023/03/27 04:52:12;;;;;;;4.35;3.33;;;2.60;99.90;;;;;;4920307;29;20226;-65
2023/03/27 04:54:41;;;;;;;3.45;3.13;;;2.60;99.90;;;;;;4920329;29;20189;-66
2023/03/27 04:57:08;;;;;;;5.18;3.53;;;2.70;99.90;;;;;;4920157;29;20252;-66
2023/03/27 04:59:36;;;;;;;4.88;3.65;;;2.60;99.90;;;;;;4920174;29;20223;-66
2023/03/27 05:02:03;;;;;;;4.80;3.67;;;2.50;99.90;;;;;;4920047;29;20202;-66
2023/03/27 05:04:31;;;;;;;7.38;3.92;;;2.50;99.90;;;;;;4920105;29;20205;-66
2023/03/27 05:06:59;;;;;;;3.95;3.58;;;2.40;99.90;;;;;;4923092;29;20236;-66
2023/03/27 05:09:26;;;;;;;6.07;3.47;;;2.40;99.90;;;;;;4920661;29;20210;-66
2023/03/27 05:11:54;;;;;;;4.80;3.78;;;2.40;99.90;;;;;;4920009;29;20208;-66
2023/03/27 05:14:23;;;;;;;4.28;3.80;;;2.50;99.90;;;;;;4920026;29;20209;-66
2023/03/27 05:16:50;;;;;;;4.70;3.25;;;2.40;99.90;;;;;;4919785;29;20213;-66
2023/03/27 05:19:19;;;;;;;6.18;3.65;;;2.30;99.90;;;;;;4919696;29;20209;-65
2023/03/27 05:21:46;;;;;;;3.00;2.83;;;2.30;99.90;;;;;;4919699;29;20261;-66
2023/03/27 05:24:13;;;;;;;2.65;2.47;;;2.40;99.90;;;;;;4919760;29;20240;-66
2023/03/27 05:26:40;;;;;;;2.45;2.25;;;2.20;99.90;;;;;;4919708;29;20237;-66
2023/03/27 05:29:08;;;;;;;2.75;2.65;;;1.90;99.90;;;;;;4919595;29;20229;-66
2023/03/27 05:31:35;;;;;;;3.10;2.45;;;1.80;99.90;;;;;;4919595;29;20632;-65
2023/03/27 05:34:02;;;;;;;2.38;2.22;;;1.70;99.90;;;;;;4919569;29;20209;-65
2023/03/27 05:36:29;;;;;;;2.25;2.03;;;1.70;99.90;;;;;;4919480;29;20205;-65
2023/03/27 05:38:56;;;;;;;2.05;1.92;;;1.70;99.90;;;;;;4919337;29;20296;-66
2023/03/27 05:41:23;;;;;;;2.45;2.35;;;1.70;99.90;;;;;;4920483;29;20303;-65
2023/03/27 05:43:50;;;;;;;1.73;1.63;;;1.70;99.90;;;;;;4919398;29;20201;-65
2023/03/27 05:46:19;;;;;;;2.10;2.00;;;1.70;99.90;;;;;;4920279;29;20208;-65
2023/03/27 05:48:47;;;;;;;2.25;2.00;;;1.70;99.90;;;;;;4922707;29;20225;-65
2023/03/27 05:51:13;;;;;;;2.78;1.65;;;1.80;99.90;;;;;;4922536;29;20210;-66
2023/03/27 05:53:40;;;;;;;3.28;1.50;;;1.80;99.90;;;;;;4919139;29;20209;-65
2023/03/27 05:56:08;;;;;;;1.58;1.48;;;1.80;99.90;;;;;;4919193;29;20205;-65
2023/03/27 05:58:35;;;;;;;2.20;1.40;;;1.70;99.90;;;;;;4918179;29;20229;-65
2023/03/27 08:15:42;;;;;;;5.82;2.00;;;3.50;99.90;;;;;;5392062;23;20246;-65
2023/03/27 08:18:10;;;;;;;10.25;1.88;;;3.30;99.90;;;;;;4974383;28;20219;-64
2023/03/27 08:20:37;;;;;;;2.92;2.00;;;3.00;99.90;;;;;;4975425;28;20223;-65
2023/03/27 08:23:04;;;;;;;4.10;2.13;;;3.00;99.90;;;;;;4978027;28;20613;-65
2023/03/27 08:25:31;;;;;;;4.28;1.50;;;2.60;99.90;;;;;;4978415;28;20251;-65
2023/03/27 08:27:58;;;;;;;5.20;1.90;;;2.50;99.90;;;;;;4978836;28;20243;-65
2023/03/27 08:30:25;;;;;;;5.53;1.60;;;2.50;99.90;;;;;;4978179;28;20195;-65
2023/03/27 08:32:53;;;;;;;4.13;1.83;;;2.40;99.90;;;;;;4977885;28;20667;-66
2023/03/27 08:35:20;;;;;;;3.05;1.92;;;2.40;99.90;;;;;;4977828;28;20729;-66
2023/03/27 08:37:47;;;;;;;2.75;1.52;;;2.40;99.90;;;;;;4978058;28;20203;-65
2023/03/27 08:40:20;;;;;;;2.88;1.60;;;2.60;99.90;;;;;;4977687;28;20639;-66
2023/03/27 08:42:53;;;;;;;4.13;1.65;;;2.60;99.90;;;;;;4978069;28;20191;-66
2023/03/27 08:45:23;;;;;;;5.35;1.73;;;2.80;99.90;;;;;;4977912;28;20231;-66
2023/03/27 08:47:58;;;;;;;4.78;1.52;;;3.10;99.90;;;;;;4977972;28;20192;-66
2023/03/27 08:50:33;;;;;;;1.70;1.40;;;3.40;99.90;;;;;;4977933;28;20187;-66
2023/03/27 08:53:01;;;;;;;2.85;1.15;;;3.80;99.90;;;;;;4977864;28;20604;-66
2023/03/27 08:55:38;;;;;;;2.42;1.35;;;3.70;99.90;;;;;;4977759;28;20254;-65
2023/03/27 08:58:05;;;;;;;1.45;1.45;;;3.50;99.90;;;;;;4977737;28;20198;-66
2023/03/27 09:00:39;;;;;;;7.32;1.70;;;3.20;99.90;;;;;;4977519;28;20223;-67
2023/03/27 09:03:13;;;;;;;3.00;1.40;;;3.10;99.90;;;;;;4977273;28;20187;-66
2023/03/27 09:05:44;;;;;;;2.67;1.25;;;3.30;99.90;;;;;;4977474;28;20222;-66
2023/03/27 09:08:21;;;;;;;4.60;2.05;;;3.50;99.90;;;;;;4977287;28;20545;-66
2023/03/27 09:10:49;;;;;;;7.15;1.52;;;3.90;99.90;;;;;;4977522;28;20242;-66
2023/03/27 09:13:21;;;;;;;5.72;1.63;;;4.20;99.90;;;;;;4977132;28;20566;-66
2023/03/27 09:15:56;;;;;;;5.13;1.77;;;4.20;99.90;;;;;;4977293;28;20274;-66
2023/03/27 09:18:30;;;;;;;6.93;1.83;;;4.20;99.90;;;;;;4977047;28;20207;-66
2023/03/27 09:21:03;;;;;;;8.10;1.80;;;4.00;99.90;;;;;;4976926;28;20622;-66
2023/03/27 09:23:36;;;;;;;1.27;1.27;;;3.70;99.90;;;;;;4977248;28;20274;-66
2023/03/27 09:26:08;;;;;;;8.80;1.60;;;3.40;99.90;;;;;;4977181;28;20290;-66
2023/03/27 09:28:40;;;;;;;4.43;1.45;;;3.20;99.90;;;;;;4977184;28;20196;-66
2023/03/27 09:31:20;;;;;;;4.70;1.40;;;3.00;99.90;;;;;;4977016;28;20209;-66
2023/03/27 09:33:49;;;;;;;4.80;1.60;;;2.80;99.90;;;;;;4976309;28;20194;-67
2023/03/27 09:36:16;;;;;;;4.45;1.27;;;2.90;99.90;;;;;;4977029;28;20226;-67
2023/03/27 09:38:49;;;;;;;1.85;1.33;;;3.20;99.90;;;;;;4976940;28;20207;-66
2023/03/27 09:41:21;;;;;;;3.20;1.25;;;3.40;99.90;;;;;;4976679;28;20552;-66
2023/03/27 09:43:55;;;;;;;3.30;1.23;;;3.60;99.90;;;;;;4977441;28;20326;-66
2023/03/27 09:46:24;;;;;;;1.63;1.10;;;4.10;99.90;;;;;;4976813;28;20245;-66
2023/03/27 09:48:58;;;;;;;4.30;1.40;;;4.40;99.90;;;;;;4976888;28;20258;-66
2023/03/27 09:51:45;;;;;;;5.13;2.03;;;4.40;99.90;;;;;;4976777;28;20184;-66
2023/03/27 09:54:14;;;;;;;6.03;1.80;;;4.40;99.90;;;;;;4976453;28;20272;-66
2023/03/27 09:56:45;;;;;;;5.05;1.10;;;4.20;99.90;;;;;;4977018;28;20319;-67
2023/03/27 09:59:22;;;;;;;5.25;1.23;;;4.10;99.90;;;;;;4978189;28;20247;-66
2023/03/27 10:01:51;;;;;;;3.45;1.77;;;3.80;99.90;;;;;;4976573;28;20212;-66
2023/03/27 10:04:21;;;;;;;4.03;1.48;;;3.80;99.90;;;;;;4976432;28;20207;-66
2023/03/27 10:06:51;;;;;;;77.53;36.20;;;3.80;99.90;;;;;;4976828;28;20191;-66
2023/03/27 10:09:24;;;;;;;8.60;5.32;;;4.00;99.90;;;;;;4977719;28;20282;-65
2023/03/27 10:11:51;;;;;;;8.18;2.60;;;4.10;99.90;;;;;;4976579;28;20267;-66
2023/03/27 10:14:21;;;;;;;3.75;1.30;;;4.00;99.90;;;;;;4976736;28;20257;-66
2023/03/27 10:16:48;;;;;;;6.85;1.60;;;3.90;99.90;;;;;;4976389;28;20242;-66
2023/03/27 10:19:27;;;;;;;6.15;2.13;;;4.00;99.90;;;;;;4976271;28;20272;-66
2023/03/27 10:21:55;;;;;;;3.35;1.38;;;4.30;99.90;;;;;;4976186;28;20215;-66
2023/03/27 10:24:31;;;;;;;3.80;1.15;;;4.20;93.10;;;;;;4976088;28;20204;-66
2023/03/27 10:26:59;;;;;;;3.60;1.52;;;4.00;94.60;;;;;;4976262;28;20191;-66
2023/03/27 10:29:29;;;;;;;5.68;1.63;;;3.90;99.80;;;;;;4975753;28;20574;-66
2023/03/27 10:31:57;;;;;;;4.03;1.58;;;3.90;95.50;;;;;;4976057;28;20184;-67
2023/03/27 10:34:32;;;;;;;2.78;1.60;;;4.00;93.00;;;;;;4975996;28;20250;-66
2023/03/27 10:37:02;;;;;;;1.70;1.42;;;4.10;98.00;;;;;;4976141;28;20191;-67
2023/03/27 10:39:33;;;;;;;4.22;1.50;;;4.40;99.90;;;;;;4975842;28;20290;-68
2023/03/27 10:42:06;;;;;;;2.72;1.00;;;4.70;99.90;;;;;;4975904;28;20299;-67
2023/03/27 10:44:36;;;;;;;4.13;1.50;;;5.10;92.40;;;;;;4975552;28;20234;-67
2023/03/27 10:47:03;;;;;;;1.90;1.23;;;5.20;79.00;;;;;;4975833;28;20191;-67
2023/03/27 10:49:41;;;;;;;2.80;1.27;;;5.10;74.60;;;;;;4975447;28;20196;-67
2023/03/27 10:52:17;;;;;;;3.45;1.00;;;5.10;59.50;;;;;;4975285;28;20635;-65
2023/03/27 10:54:49;;;;;;;4.65;1.05;;;5.00;55.60;;;;;;4976340;28;20255;-65
2023/03/27 10:57:19;;;;;;;3.25;1.33;;;5.10;53.90;;;;;;4975472;28;20535;-65
2023/03/27 10:59:52;;;;;;;1.98;1.25;;;4.90;57.50;;;;;;4976040;28;20219;-67
2023/03/27 11:02:23;;;;;;;3.13;1.10;;;4.90;76.00;;;;;;4975480;28;20239;-66
2023/03/27 11:04:56;;;;;;;2.08;1.15;;;4.80;85.40;;;;;;4975371;28;20227;-67
2023/03/27 11:07:28;;;;;;;4.70;1.38;;;4.70;83.80;;;;;;4975481;28;20282;-67
2023/03/27 11:10:02;;;;;;;2.45;1.30;;;4.50;72.40;;;;;;4975484;28;20183;-65
2023/03/27 11:12:32;;;;;;;9.52;2.40;;;4.30;77.20;;;;;;4975510;28;20195;-67
2023/03/27 11:15:03;;;;;;;1.98;1.02;;;4.20;69.50;;;;;;4975554;28;20274;-67
2023/03/27 11:17:35;;;;;;;1.20;1.00;;;4.00;64.10;;;;;;4975116;28;20242;-67
2023/03/27 11:20:09;;;;;;;1.65;1.02;;;4.00;64.60;;;;;;4975492;28;20184;-67
2023/03/27 11:22:42;;;;;;;2.72;1.10;;;4.00;65.40;;;;;;4975350;28;20237;-67
2023/03/27 11:25:20;;;;;;;2.80;1.40;;;4.30;66.70;;;;;;4975114;28;20227;-67
2023/03/27 11:27:54;;;;;;;1.92;1.10;;;4.50;58.00;;;;;;4975141;28;20198;-67
2023/03/27 11:30:34;;;;;;;4.45;1.20;;;4.40;57.30;;;;;;4974911;28;20256;-65
2023/03/27 11:33:27;;;;;;;2.92;0.98;;;4.20;60.70;;;;;;4974566;28;20187;-67
2023/03/27 11:36:00;;;;;;;2.20;0.70;;;4.00;57.40;;;;;;4975846;28;20219;-66
2023/03/27 11:38:32;;;;;;;3.35;1.10;;;3.90;53.00;;;;;;4978359;28;20191;-68
2023/03/27 11:41:00;;;;;;;2.38;0.88;;;3.80;52.90;;;;;;4978641;28;20196;-68
2023/03/27 11:43:28;;;;;;;3.35;1.13;;;3.80;53.80;;;;;;4977820;28;20666;-67
2023/03/27 11:46:07;;;;;;;2.50;0.90;;;4.10;56.70;;;;;;4977870;28;20282;-66
2023/03/27 11:49:01;;;;;;;1.33;0.80;;;4.20;49.80;;;;;;4978695;28;20187;-66
2023/03/27 11:51:41;;;;;;;1.27;1.15;;;4.30;49.80;;;;;;4977228;28;20631;-66
2023/03/27 11:54:24;;;;;;;2.55;1.10;;;4.60;50.70;;;;;;4978347;28;20191;-65
2023/03/27 11:56:54;;;;;;;3.63;1.30;;;4.90;51.50;;;;;;4977973;28;20222;-66
2023/03/27 11:59:52;;;;;;;3.53;1.20;;;5.20;55.40;;;;;;4978329;28;20235;-65
2023/03/27 12:02:53;;;;;;;3.13;1.20;;;5.30;51.30;;;;;;4976747;28;20223;-67
2023/03/27 12:05:28;;;;;;;1.38;0.52;;;5.20;47.80;;;;;;4938914;28;20696;-66
2023/03/27 12:08:07;;;;;;;1.15;0.80;;;5.20;46.80;;;;;;4978797;28;20198;-66
2023/03/27 12:10:37;;;;;;;2.95;1.10;;;5.20;44.50;;;;;;4978664;28;20635;-66
2023/03/27 12:13:58;;;;;;;0.90;0.90;;;5.30;44.40;;;;;;4978212;28;20223;-66
2023/03/27 12:16:47;;;;;;;2.00;0.93;;;5.50;43.00;;;;;;4898934;29;20226;-66
2023/03/27 12:19:33;;;;;;;2.95;0.88;;;5.30;39.20;;;;;;4977553;28;20207;-65
2023/03/27 12:22:14;;;;;;;1.58;1.40;;;5.40;39.00;;;;;;4977913;28;20214;-65
2023/03/27 12:24:57;;;;;;;1.20;0.77;;;5.10;38.40;;;;;;4977713;28;20227;-65
2023/03/27 12:27:37;;;;;;;0.68;0.68;;;4.80;36.90;;;;;;4977890;28;20659;-65
2023/03/27 12:30:21;;;;;;;2.50;0.93;;;4.80;38.70;;;;;;4976284;28;20278;-65
2023/03/27 12:33:17;;;;;;;0.75;0.75;;;4.60;39.20;;;;;;4975332;28;20180;-66
2023/03/27 12:35:47;;;;;;;1.90;1.10;;;4.40;40.30;;;;;;4976650;28;20231;-66
2023/03/27 12:38:22;;;;;;;3.10;1.00;;;4.40;43.90;;;;;;4975417;28;20628;-66
2023/03/27 12:41:02;;;;;;;1.15;0.73;;;4.20;45.90;;;;;;4975964;28;20215;-66
2023/03/27 12:43:32;;;;;;;1.95;1.00;;;4.00;45.80;;;;;;4975196;28;20246;-66
2023/03/27 12:46:11;;;;;;;1.45;1.20;;;4.00;45.60;;;;;;4974152;28;20224;-65
2023/03/27 12:48:55;;;;;;;3.25;0.90;;;4.10;45.00;;;;;;4974264;28;20195;-66
2023/03/27 12:51:37;;;;;;;1.27;1.17;;;4.20;43.50;;;;;;4974896;28;20188;-66
2023/03/27 12:54:25;;;;;;;2.03;1.50;;;4.30;44.80;;;;;;4974236;28;20613;-65
2023/03/27 12:57:03;;;;;;;1.77;0.95;;;4.30;44.00;;;;;;4974358;28;20191;-65
2023/03/27 12:59:32;;;;;;;1.45;0.80;;;4.40;44.10;;;;;;4974460;28;20223;-64
2023/03/27 13:02:29;;;;;;;1.27;0.60;;;4.30;42.30;;;;;;4973767;28;20612;-65
2023/03/27 13:05:29;;;;;;;0.82;0.80;;;4.50;40.60;;;;;;4966341;28;20227;-66
2023/03/27 13:08:20;;;;;;;2.88;0.75;;;4.60;39.70;;;;;;4976573;28;20188;-66
2023/03/27 13:10:57;;;;;;;0.75;0.75;;;4.90;41.40;;;;;;4977268;28;20665;-66
2023/03/27 13:13:48;;;;;;;2.25;0.95;;;5.20;41.90;;;;;;4977629;28;20187;-65
2023/03/27 13:16:30;;;;;;;1.48;0.80;;;5.50;40.50;;;;;;4977502;28;20230;-66
2023/03/27 13:19:12;;;;;;;2.63;1.20;;;5.80;40.80;;;;;;4977119;28;20214;-66
2023/03/27 13:21:48;;;;;;;0.95;0.95;;;5.80;40.10;;;;;;4977375;28;20191;-66
2023/03/27 13:24:30;;;;;;;1.00;0.80;;;5.80;40.80;;;;;;4977244;28;20187;-66
2023/03/27 13:27:11;;;;;;;2.67;0.80;;;5.90;41.60;;;;;;4977175;28;20282;-66
2023/03/27 13:29:40;;;;;;;1.65;1.55;;;6.00;40.40;;;;;;4977519;28;20195;-66
2023/03/27 13:32:30;;;;;;;3.22;0.93;;;6.00;41.20;;;;;;4977266;28;20306;-66
2023/03/27 13:35:08;;;;;;;3.13;0.90;;;5.90;39.30;;;;;;4977696;28;20265;-66
2023/03/27 13:37:52;;;;;;;1.63;0.80;;;5.50;38.10;;;;;;4977614;28;20192;-66
2023/03/27 13:40:26;;;;;;;1.90;1.00;;;5.10;39.80;;;;;;4977253;28;20192;-65
2023/03/27 13:42:59;;;;;;;0.90;0.90;;;4.80;43.20;;;;;;4977210;28;20215;-64
2023/03/27 13:45:36;;;;;;;1.95;1.70;;;4.70;43.90;;;;;;4977204;28;20230;-66
2023/03/27 13:48:49;;;;;;;1.65;1.55;;;4.50;46.50;;;;;;4977108;28;20191;-67
2023/03/27 13:51:37;;;;;;;1.48;1.15;;;4.50;47.70;;;;;;4977100;28;20214;-66
2023/03/27 13:54:31;;;;;;;1.63;1.05;;;4.50;44.40;;;;;;4976933;28;20183;-66
2023/03/27 13:57:10;;;;;;;1.95;1.30;;;4.60;46.40;;;;;;4973948;28;20203;-66
2023/03/27 14:00:05;;;;;;;4.25;1.23;;;4.70;44.20;;;;;;4976910;28;20191;-66
2023/03/27 14:03:18;;;;;;;2.80;1.20;;;4.70;43.10;;;;;;4977074;28;20224;-65
2023/03/27 14:06:19;;;;;;;3.15;1.02;;;4.70;44.30;;;;;;4976821;28;20702;-65
2023/03/27 14:08:54;;;;;;;2.40;1.10;;;4.70;43.20;;;;;;4951553;28;20203;-65
2023/03/27 14:11:36;;;;;;;3.65;1.08;;;4.60;43.10;;;;;;4976782;28;20286;-65
2023/03/27 14:14:22;;;;;;;0.98;0.80;;;4.50;43.00;;;;;;4976403;28;20722;-65
2023/03/27 14:17:08;;;;;;;0.93;0.90;;;4.60;45.20;;;;;;4977001;28;20188;-65
2023/03/27 14:20:11;;;;;;;0.98;0.90;;;4.60;42.70;;;;;;4975947;28;20187;-65
2023/03/27 14:22:44;;;;;;;2.08;0.90;;;4.60;42.10;;;;;;4976604;28;20250;-66
2023/03/27 14:25:14;;;;;;;1.30;1.00;;;4.60;44.10;;;;;;4976373;28;20711;-65
2023/03/27 14:27:43;;;;;;;1.45;0.80;;;4.70;45.40;;;;;;4977219;28;20191;-65
2023/03/27 14:30:19;;;;;;;0.70;0.70;;;4.80;45.50;;;;;;4976523;28;20207;-65
2023/03/27 14:32:47;;;;;;;2.03;0.98;;;5.10;45.10;;;;;;4976729;28;20198;-64
2023/03/27 14:35:29;;;;;;;0.98;0.88;;;5.20;43.50;;;;;;4976856;28;20251;-63
2023/03/27 14:37:58;;;;;;;2.00;0.68;;;5.40;42.30;;;;;;4976931;28;20280;-64
2023/03/27 14:40:28;;;;;;;1.05;0.73;;;5.50;42.40;;;;;;4976912;28;20298;-65
2023/03/27 14:42:56;;;;;;;1.27;0.80;;;5.60;41.80;;;;;;4976596;28;20234;-66
2023/03/27 14:45:26;;;;;;;1.75;1.00;;;5.60;39.80;;;;;;4976574;28;20231;-66
2023/03/27 14:47:58;;;;;;;1.13;0.70;;;5.60;40.40;;;;;;4976633;28;20204;-65
2023/03/27 14:50:28;;;;;;;0.98;0.98;;;5.70;40.10;;;;;;4977256;28;20588;-65
2023/03/27 14:52:57;;;;;;;0.63;0.63;;;5.60;37.60;;;;;;4976314;28;20544;-64
2023/03/27 14:55:28;;;;;;;0.70;0.70;;;5.50;38.30;;;;;;4976441;28;20223;-66
2023/03/27 14:57:59;;;;;;;2.45;1.20;;;5.50;37.80;;;;;;4976266;28;20222;-65
2023/03/27 15:00:33;;;;;;;2.15;0.93;;;5.50;38.10;;;;;;4976566;28;20268;-64
2023/03/27 15:03:05;;;;;;;1.13;1.00;;;5.40;37.30;;;;;;4976014;28;20748;-69
2023/03/27 15:05:33;;;;;;;2.85;0.98;;;5.30;37.60;;;;;;4976387;28;20227;-65
2023/03/27 15:08:00;;;;;;;0.82;0.70;;;5.30;37.90;;;;;;4976122;28;20199;-64
2023/03/27 15:10:28;;;;;;;0.80;0.80;;;5.20;38.10;;;;;;4976271;28;20207;-66
2023/03/27 15:12:55;;;;;;;2.92;0.90;;;5.10;37.90;;;;;;4976619;28;20186;-65
2023/03/27 15:15:37;;;;;;;0.90;0.90;;;5.00;37.00;;;;;;4976074;28;20230;-67
2023/03/27 15:18:10;;;;;;;0.90;0.90;;;5.00;37.30;;;;;;4976063;28;20294;-67
2023/03/27 15:20:40;;;;;;;0.90;0.88;;;5.00;37.10;;;;;;4976066;28;20192;-66
2023/03/27 15:23:15;;;;;;;0.85;0.85;;;4.90;37.80;;;;;;4975807;28;20230;-66
2023/03/27 15:25:47;;;;;;;1.42;1.20;;;5.00;38.50;;;;;;4975359;28;20270;-67
2023/03/27 15:28:20;;;;;;;4.05;1.52;;;5.00;39.10;;;;;;4975524;28;20287;-67
2023/03/27 15:30:51;;;;;;;0.50;0.50;;;5.00;38.50;;;;;;4975504;28;20278;-67
2023/03/27 15:33:21;;;;;;;1.65;0.93;;;5.00;38.80;;;;;;4975191;28;20698;-67
2023/03/27 15:35:53;;;;;;;1.63;0.93;;;5.00;37.40;;;;;;4975231;28;20714;-68
2023/03/27 15:38:29;;;;;;;3.25;0.77;;;5.20;38.40;;;;;;4975361;28;20188;-68
2023/03/27 15:41:01;;;;;;;2.25;1.00;;;5.20;38.70;;;;;;4975667;28;20198;-67
2023/03/27 15:43:29;;;;;;;3.85;1.10;;;5.20;38.50;;;;;;4975257;28;20211;-67
2023/03/27 15:46:12;;;;;;;1.02;0.60;;;5.10;38.50;;;;;;4975187;28;20285;-67
2023/03/27 15:48:44;;;;;;;4.25;1.05;;;4.90;39.00;;;;;;4975300;28;20191;-66
2023/03/27 15:51:26;;;;;;;2.55;1.23;;;4.90;40.20;;;;;;4975461;28;20555;-67
2023/03/27 15:53:57;;;;;;;0.80;0.80;;;5.00;41.60;;;;;;4974987;28;20569;-67
2023/03/27 15:56:30;;;;;;;1.77;0.80;;;5.00;41.70;;;;;;4975351;28;20306;-68
2023/03/27 15:58:59;;;;;;;2.58;1.00;;;5.00;42.00;;;;;;4975649;28;20211;-66
2023/03/27 16:01:31;;;;;;;2.60;0.82;;;4.90;43.50;;;;;;4974882;28;20698;-66
2023/03/27 16:04:00;;;;;;;2.03;1.00;;;4.90;46.00;;;;;;4974875;28;20686;-66
2023/03/27 16:06:35;;;;;;;4.65;1.10;;;5.00;47.10;;;;;;4975182;28;20262;-66
2023/03/27 16:09:04;;;;;;;1.98;0.77;;;5.00;47.20;;;;;;4975093;28;20187;-66
2023/03/27 16:11:41;;;;;;;2.17;1.00;;;4.90;48.10;;;;;;4974738;28;20674;-66
2023/03/27 16:14:21;;;;;;;0.90;0.90;;;4.80;49.80;;;;;;4974995;28;20187;-66
2023/03/27 16:16:48;;;;;;;1.38;0.90;;;4.80;51.90;;;;;;4974779;28;20562;-65
2023/03/27 16:19:15;;;;;;;0.73;0.73;;;4.60;50.00;;;;;;4974827;28;20226;-65
2023/03/27 16:21:55;;;;;;;1.40;0.90;;;4.60;50.00;;;;;;4975121;28;20241;-65
2023/03/27 16:24:22;;;;;;;2.10;0.88;;;4.50;52.10;;;;;;4974687;28;20689;-66
2023/03/27 16:26:50;;;;;;;3.25;1.42;;;4.50;52.10;;;;;;4974760;28;20208;-65
2023/03/27 16:29:18;;;;;;;1.02;0.90;;;4.50;50.30;;;;;;4974540;28;20582;-65
2023/03/27 16:31:45;;;;;;;3.65;1.35;;;4.40;50.70;;;;;;4974996;28;20208;-65
2023/03/27 16:34:12;;;;;;;1.02;0.90;;;4.30;52.20;;;;;;4974932;28;20207;-65
2023/03/27 16:36:40;;;;;;;2.25;1.27;;;4.20;52.90;;;;;;4974951;28;20203;-65
2023/03/27 16:39:09;;;;;;;1.20;1.00;;;4.20;53.90;;;;;;4975041;28;20294;-66
2023/03/27 16:41:36;;;;;;;1.67;1.23;;;4.20;55.30;;;;;;4975466;28;20245;-66
2023/03/27 16:44:03;;;;;;;2.55;1.30;;;4.10;57.00;;;;;;4978626;28;20223;-67
2023/03/27 16:46:31;;;;;;;2.88;0.95;;;4.10;58.90;;;;;;4978032;28;20725;-68
2023/03/27 16:48:58;;;;;;;1.90;1.00;;;3.90;61.50;;;;;;4978605;28;20194;-68
2023/03/27 16:51:27;;;;;;;6.38;3.25;;;3.80;68.40;;;;;;4978343;28;20196;-68
2023/03/27 16:53:53;;;;;;;3.88;3.17;;;3.80;80.60;;;;;;4978420;28;20206;-68
2023/03/27 16:56:21;;;;;;;2.95;1.98;;;3.70;92.60;;;;;;4978419;28;20222;-68
2023/03/27 16:58:48;;;;;;;2.75;1.45;;;3.40;99.90;;;;;;4978482;28;20210;-69
2023/03/27 17:01:15;;;;;;;1.60;1.50;;;3.10;99.90;;;;;;4978181;28;20203;-67
2023/03/27 17:03:42;;;;;;;2.28;1.42;;;2.80;99.90;;;;;;4978306;28;20231;-68
2023/03/27 17:06:11;;;;;;;4.30;1.75;;;2.70;99.90;;;;;;4978228;28;20711;-67
2023/03/27 17:08:38;;;;;;;2.42;1.52;;;2.50;99.90;;;;;;4977725;28;20635;-67
2023/03/27 17:11:07;;;;;;;3.45;1.77;;;2.30;99.90;;;;;;4978062;28;20215;-68
2023/03/27 17:13:36;;;;;;;2.17;1.67;;;2.10;99.90;;;;;;4978021;28;20606;-68
2023/03/27 17:16:04;;;;;;;2.83;1.70;;;2.00;99.90;;;;;;4977971;28;20699;-67
2023/03/27 17:18:30;;;;;;;3.08;2.75;;;1.80;99.90;;;;;;4977637;28;20211;-66
2023/03/27 17:20:57;;;;;;;2.55;2.28;;;1.60;99.90;;;;;;4977385;28;20621;-67
2023/03/27 17:23:24;;;;;;;2.45;2.25;;;1.50;99.90;;;;;;4977768;28;20219;-66
2023/03/27 17:25:51;;;;;;;1.85;1.75;;;1.50;99.90;;;;;;4977283;28;20595;-66
2023/03/27 17:28:18;;;;;;;1.85;1.70;;;1.40;99.90;;;;;;4978815;28;20203;-66
2023/03/27 17:30:46;;;;;;;3.42;1.80;;;1.30;99.90;;;;;;4977865;28;20208;-67
2023/03/27 17:33:13;;;;;;;3.83;2.30;;;1.30;99.90;;;;;;4977491;28;20202;-68
2023/03/27 17:35:40;;;;;;;2.13;1.95;;;1.30;99.90;;;;;;4977318;28;20219;-71
2023/03/27 17:38:08;;;;;;;4.10;1.92;;;1.30;99.90;;;;;;4977594;28;20214;-68
2023/03/27 17:40:37;;;;;;;3.08;1.98;;;1.30;99.90;;;;;;4977226;28;20210;-68
2023/03/27 17:43:04;;;;;;;1.80;1.70;;;1.30;99.90;;;;;;4977150;28;20207;-67
2023/03/27 17:45:31;;;;;;;2.38;2.17;;;1.30;99.90;;;;;;4977217;28;20262;-67
2023/03/27 17:47:59;;;;;;;1.92;1.83;;;1.30;99.90;;;;;;4977212;28;20215;-67
2023/03/27 17:50:26;;;;;;;1.98;1.88;;;1.40;99.90;;;;;;4977136;28;20250;-67
2023/03/27 17:52:52;;;;;;;1.48;1.48;;;1.40;99.90;;;;;;4976095;28;20204;-67
2023/03/27 17:55:19;;;;;;;1.83;1.73;;;1.40;99.90;;;;;;4976777;28;20227;-66
2023/03/27 17:57:46;;;;;;;1.38;1.33;;;1.40;99.90;;;;;;4977547;28;20207;-66
2023/03/27 18:00:14;;;;;;;2.95;1.73;;;1.50;99.90;;;;;;4976781;28;20214;-66
2023/03/27 18:02:40;;;;;;;1.85;1.70;;;1.40;99.90;;;;;;4977037;28;20241;-67
2023/03/27 18:05:09;;;;;;;1.40;1.40;;;1.50;99.90;;;;;;4977422;28;20236;-66
2023/03/27 18:07:36;;;;;;;1.50;1.50;;;1.50;99.90;;;;;;4977335;28;20192;-66
2023/03/27 18:10:02;;;;;;;2.25;1.70;;;1.50;99.90;;;;;;4976938;28;20230;-68
2023/03/27 18:12:32;;;;;;;2.08;1.70;;;1.50;99.90;;;;;;4978266;28;20220;-68
2023/03/27 18:14:59;;;;;;;4.68;1.90;;;1.50;99.90;;;;;;4977339;28;20227;-66
2023/03/27 18:17:26;;;;;;;1.90;1.80;;;1.40;99.90;;;;;;4976526;28;20215;-66
2023/03/27 18:19:53;;;;;;;1.95;1.85;;;1.40;99.90;;;;;;4976765;28;20204;-66
2023/03/27 18:22:21;;;;;;;1.42;1.42;;;1.50;99.90;;;;;;4976554;28;20554;-66
2023/03/27 18:24:48;;;;;;;1.75;1.65;;;1.40;99.90;;;;;;4976482;28;20223;-65
2023/03/27 18:27:15;;;;;;;1.85;1.60;;;1.40;99.90;;;;;;4976601;28;20328;-65
2023/03/27 18:29:42;;;;;;;1.45;1.35;;;1.50;99.90;;;;;;4976529;28;20234;-65
2023/03/27 18:32:09;;;;;;;2.97;1.90;;;1.40;99.90;;;;;;4976391;28;20214;-66
2023/03/27 18:34:36;;;;;;;1.90;1.80;;;1.40;99.90;;;;;;4976509;28;20223;-66
2023/03/27 18:37:02;;;;;;;1.80;1.80;;;1.40;99.90;;;;;;4977440;28;20214;-67
2023/03/27 18:39:34;;;;;;;1.70;1.60;;;1.40;99.90;;;;;;4976716;28;20203;-66
2023/03/27 18:42:01;;;;;;;1.42;1.33;;;1.30;99.90;;;;;;4977225;28;20287;-65
2023/03/27 18:44:27;;;;;;;1.90;1.40;;;1.30;99.90;;;;;;4976680;28;20262;-66
2023/03/27 18:46:54;;;;;;;1.70;1.70;;;1.30;99.90;;;;;;4976275;28;20230;-65
2023/03/27 18:49:21;;;;;;;1.95;1.85;;;1.30;99.90;;;;;;4975986;28;20239;-65
2023/03/27 18:51:48;;;;;;;1.73;1.50;;;1.30;99.90;;;;;;4976280;28;20203;-66
2023/03/27 18:54:14;;;;;;;2.70;1.70;;;1.30;99.90;;;;;;4976199;28;20283;-66
2023/03/27 18:56:42;;;;;;;1.35;1.35;;;1.10;99.90;;;;;;4976198;28;20207;-66
2023/03/27 18:59:09;;;;;;;2.45;1.20;;;1.30;99.90;;;;;;4975981;28;20643;-66
2023/03/27 19:01:36;;;;;;;1.27;1.20;;;1.30;99.90;;;;;;4976185;28;20254;-67
2023/03/27 19:04:03;;;;;;;2.33;1.77;;;1.30;99.90;;;;;;4975773;28;20224;-67
2023/03/27 19:06:32;;;;;;;2.05;1.95;;;1.20;99.90;;;;;;4975713;28;20227;-66
2023/03/27 19:08:59;;;;;;;1.55;1.55;;;1.20;99.90;;;;;;4975727;28;20207;-66
2023/03/27 19:11:25;;;;;;;2.53;1.73;;;1.30;99.90;;;;;;4975890;28;20295;-67
2023/03/27 19:13:54;;;;;;;1.42;1.42;;;1.20;99.90;;;;;;4975914;28;20199;-66
2023/03/27 19:16:21;;;;;;;1.50;1.50;;;1.10;99.90;;;;;;4975451;28;20702;-66
2023/03/27 19:18:47;;;;;;;1.58;1.50;;;1.00;99.90;;;;;;4975370;28;20219;-66
2023/03/27 19:21:14;;;;;;;1.60;1.50;;;0.90;99.90;;;;;;4975708;28;20199;-66
2023/03/27 19:23:41;;;;;;;1.70;1.70;;;0.90;99.90;;;;;;4975608;28;20210;-66
2023/03/27 19:26:09;;;;;;;1.50;1.40;;;0.80;99.90;;;;;;4975493;28;20223;-67
2023/03/27 19:28:36;;;;;;;1.38;1.38;;;0.70;99.90;;;;;;4975413;28;20210;-67
2023/03/27 19:31:09;;;;;;;1.58;1.58;;;0.60;99.90;;;;;;4975802;28;20634;-66
2023/03/27 19:33:37;;;;;;;1.48;1.48;;;0.50;99.90;;;;;;4975712;28;20663;-66
2023/03/27 19:36:04;;;;;;;1.88;1.50;;;0.40;99.90;;;;;;4975385;28;20745;-67
2023/03/27 19:38:31;;;;;;;1.50;1.45;;;0.40;99.90;;;;;;4975575;28;20210;-67
2023/03/27 19:40:57;;;;;;;1.55;1.52;;;0.30;99.90;;;;;;4975635;28;20203;-66
2023/03/27 19:43:24;;;;;;;1.30;1.30;;;0.20;99.90;;;;;;4975249;28;20690;-66
2023/03/27 19:45:55;;;;;;;1.48;1.48;;;0.20;99.90;;;;;;4975179;28;20237;-66
2023/03/27 19:48:23;;;;;;;1.25;1.25;;;0.10;99.90;;;;;;4976239;28;20631;-66
2023/03/27 19:50:50;;;;;;;1.50;1.50;;;0.10;99.90;;;;;;4975490;28;20203;-66
2023/03/27 19:53:17;;;;;;;1.55;1.45;;;0.00;99.90;;;;;;4975047;28;20203;-66
2023/03/27 19:55:44;;;;;;;1.40;1.30;;;0.00;99.90;;;;;;4974949;28;20707;-66
2023/03/27 19:58:11;;;;;;;1.40;1.40;;;0.00;99.90;;;;;;4975288;28;20207;-65